Time,TemperatureF,DewpointF,PressureIn,WindDirection,WindDirectionDegrees,WindSpeedMPH,WindSpeedGustMPH,Humidity,HourlyPrecipIn,Conditions,Clouds,dailyrainin,SolarRadiationWatts/m^2,SoftwareType,DateUTC
2013-04-24 00:03:00,48.0,44.9,30.02,North,352,1.2,1.2,89,0.00,RA,,0.00,0.0,WeatherDisplay:10.37,2013-04-23 23:03:00,
2013-04-24 00:08:00,48.0,45.2,30.02,North,0,2.3,2.3,90,0.00,RA,,0.00,0.0,WeatherDisplay:10.37,2013-04-23 23:08:00,
2013-04-24 00:14:00,48.2,45.4,30.02,NW,316,2.3,2.3,90,0.00,CLR,,0.00,0.0,WeatherDisplay:10.37,2013-04-23 23:14:00,
2013-04-24 00:19:00,48.2,45.7,30.02,North,357,5.8,5.8,91,0.00,CLR,,0.00,0.0,WeatherDisplay:10.37,2013-04-23 23:19:00,
2013-04-24 00:24:00,48.0,45.8,30.02,SW,232,6.9,6.9,92,0.00,CLR,,0.00,0.0,WeatherDisplay:10.37,2013-04-23 23:24:00,
2013-04-24 00:29:00,48.0,45.8,30.02,North,0,3.5,3.5,92,0.00,CLR,,0.00,0.0,WeatherDisplay:10.37,2013-04-23 23:29:00,
2013-04-24 00:34:00,47.7,45.8,30.01,WNW,292,4.6,4.6,93,0.01,RA,,0.01,0.0,WeatherDisplay:10.37,2013-04-23 23:34:00,
2013-04-24 00:39:00,47.6,46.0,30.01,West,261,2.3,2.3,94,0.02,RA,,0.02,0.0,WeatherDisplay:10.37,2013-04-23 23:39:00,
2013-04-24 00:44:00,47.6,46.2,30.01,WNW,299,1.0,1.0,95,0.02,RA,,0.02,0.0,WeatherDisplay:10.37,2013-04-23 23:44:00,
2013-04-24 00:49:00,47.4,46.0,30.01,WNW,299,1.2,0.0,95,0.02,,,0.02,0.0,WeatherDisplay:10.37,2013-04-23 23:49:00,
2013-04-24 00:54:00,47.3,46.2,30.01,WNW,298,0.0,0.0,96,0.02,CLR,,0.02,0.0,WeatherDisplay:10.37,2013-04-23 23:54:00,
2013-04-24 00:59:00,47.3,46.2,30.01,SW,227,0.0,0.0,96,0.02,CLR,,0.02,0.0,WeatherDisplay:10.37,2013-04-23 23:59:00,
2013-04-24 01:05:00,47.3,46.2,30.00,WSW,241,0.0,0.0,96,0.02,CLR,,0.02,0.0,WeatherDisplay:10.37,2013-04-24 00:05:00,
2013-04-24 01:10:00,47.1,46.3,30.00,West,263,1.2,1.2,97,0.02,CLR,,0.02,0.0,WeatherDisplay:10.37,2013-04-24 00:10:00,
2013-04-24 01:15:00,47.1,46.3,30.00,WSW,243,0.0,2.0,97,0.00,RA,,0.03,0.0,WeatherDisplay:10.37,2013-04-24 00:15:00,
2013-04-24 01:20:00,47.1,46.3,29.99,SW,236,0.0,0.0,97,0.03,RA,,0.03,0.0,WeatherDisplay:10.37,2013-04-24 00:20:00,
2013-04-24 01:25:00,47.1,46.6,29.99,SW,236,0.0,0.0,98,0.04,RA,,0.04,0.0,WeatherDisplay:10.37,2013-04-24 00:25:00,
2013-04-24 01:30:00,47.1,46.6,29.99,SW,236,0.0,0.0,98,0.03,RA,,0.04,0.0,WeatherDisplay:10.37,2013-04-24 00:30:00,
2013-04-24 01:35:00,47.1,46.6,29.99,SW,236,0.0,0.0,98,0.03,CLR,,0.04,0.0,WeatherDisplay:10.37,2013-04-24 00:35:00,
2013-04-24 01:40:00,47.3,46.8,29.98,SW,229,0.0,0.0,98,0.02,CLR,,0.04,0.0,WeatherDisplay:10.37,2013-04-24 00:40:00,
2013-04-24 01:45:00,47.3,47.0,29.98,SW,232,2.3,2.3,99,0.03,RA,,0.05,0.0,WeatherDisplay:10.37,2013-04-24 00:45:00,
2013-04-24 01:51:00,47.3,47.0,29.98,SW,230,0.0,0.0,99,0.03,RA,,0.05,0.0,WeatherDisplay:10.37,2013-04-24 00:51:00,
2013-04-24 01:56:00,47.4,47.1,29.97,SW,230,1.2,1.2,99,0.03,,,0.05,0.0,WeatherDisplay:10.37,2013-04-24 00:56:00,
2013-04-24 02:01:00,47.4,47.1,29.97,SW,229,0.0,0.0,99,0.03,CLR,,0.05,0.0,WeatherDisplay:10.37,2013-04-24 01:01:00,
2013-04-24 02:06:00,47.4,47.1,29.97,SW,229,0.0,0.0,99,0.03,CLR,,0.05,0.0,WeatherDisplay:10.37,2013-04-24 01:06:00,
2013-04-24 02:11:00,47.4,47.4,29.98,WSW,243,0.0,0.0,100,0.04,RA,,0.06,0.0,WeatherDisplay:10.37,2013-04-24 01:11:00,
2013-04-24 02:16:00,47.4,47.4,29.98,WSW,243,0.0,0.0,100,0.03,RA,,0.06,0.0,WeatherDisplay:10.37,2013-04-24 01:16:00,
2013-04-24 02:21:00,47.4,47.4,29.97,WSW,243,0.0,0.0,100,0.02,,,0.06,0.0,WeatherDisplay:10.37,2013-04-24 01:21:00,
2013-04-24 02:27:00,47.4,47.4,29.96,WSW,243,0.0,0.0,100,0.03,RA,,0.07,0.0,WeatherDisplay:10.37,2013-04-24 01:27:00,
2013-04-24 02:32:00,47.3,47.3,29.96,WSW,247,0.0,0.0,100,0.04,RA,,0.08,0.0,WeatherDisplay:10.37,2013-04-24 01:32:00,
2013-04-24 02:37:00,47.3,47.3,29.96,WSW,243,0.0,0.0,100,0.04,RA,,0.08,0.0,WeatherDisplay:10.37,2013-04-24 01:37:00,
2013-04-24 02:42:00,47.3,47.3,29.95,WSW,243,0.0,0.0,100,0.05,RA,,0.09,0.0,WeatherDisplay:10.37,2013-04-24 01:42:00,
2013-04-24 02:47:00,47.3,47.3,29.95,WSW,241,0.0,0.0,100,0.05,RA,,0.10,0.0,WeatherDisplay:10.37,2013-04-24 01:47:00,
2013-04-24 02:53:00,47.3,47.3,29.95,WNW,294,2.3,2.3,100,0.05,RA,,0.11,0.0,WeatherDisplay:10.37,2013-04-24 01:53:00,
2013-04-24 02:58:00,47.3,47.3,29.94,NW,304,0.0,0.0,100,0.07,RA,,0.12,0.0,WeatherDisplay:10.37,2013-04-24 01:58:00,
2013-04-24 03:03:00,47.3,47.3,29.94,WNW,291,0.0,0.0,100,0.08,RA,,0.13,0.0,WeatherDisplay:10.37,2013-04-24 02:03:00,
2013-04-24 03:08:00,47.3,47.3,29.94,WNW,294,2.3,0.0,100,0.10,RA,,0.15,0.0,WeatherDisplay:10.37,2013-04-24 02:08:00,
2013-04-24 03:14:00,47.3,47.3,29.94,WNW,291,2.3,2.3,100,0.11,RA,,0.17,0.0,WeatherDisplay:10.37,2013-04-24 02:14:00,
2013-04-24 03:19:00,47.3,47.3,29.94,WNW,294,1.0,0.0,100,0.13,RA,,0.20,0.0,WeatherDisplay:10.37,2013-04-24 02:19:00,
2013-04-24 03:24:00,47.3,47.3,29.94,WSW,240,0.0,0.5,100,0.15,RA,,0.22,0.0,WeatherDisplay:10.37,2013-04-24 02:24:00,
2013-04-24 03:30:00,47.3,47.3,29.93,North,354,2.3,2.3,100,0.17,RA,,0.24,0.0,WeatherDisplay:10.37,2013-04-24 02:30:00,
2013-04-24 03:35:00,47.3,47.3,29.92,NNW,346,2.3,2.3,100,0.17,RA,,0.25,0.0,WeatherDisplay:10.37,2013-04-24 02:35:00,
2013-04-24 03:41:00,47.3,47.3,29.92,North,357,1.2,0.0,100,0.18,RA,,0.26,0.0,WeatherDisplay:10.37,2013-04-24 02:41:00,
2013-04-24 03:46:00,47.3,47.3,29.92,NNW,347,1.2,0.0,100,0.16,RA,,0.26,0.0,WeatherDisplay:10.37,2013-04-24 02:46:00,
2013-04-24 03:51:00,47.4,47.4,29.92,North,353,0.0,0.0,100,0.17,RA,,0.27,0.0,WeatherDisplay:10.37,2013-04-24 02:51:00,
2013-04-24 03:56:00,47.4,47.4,29.92,North,0,0.0,0.0,100,0.17,RA,,0.29,0.0,WeatherDisplay:10.37,2013-04-24 02:56:00,
2013-04-24 04:02:00,47.6,47.6,29.91,WNW,302,0.0,0.0,100,0.17,RA,,0.30,0.0,WeatherDisplay:10.37,2013-04-24 03:02:00,
2013-04-24 04:09:00,47.9,47.9,29.91,NW,316,2.3,2.3,100,0.16,RA,,0.31,0.0,WeatherDisplay:10.37,2013-04-24 03:09:00,
2013-04-24 04:14:00,48.2,48.2,29.90,WNW,301,2.3,2.3,100,0.15,RA,,0.33,0.0,WeatherDisplay:10.37,2013-04-24 03:14:00,
2013-04-24 04:19:00,48.3,48.3,29.90,NW,318,2.3,2.3,100,0.15,RA,,0.34,0.0,WeatherDisplay:10.37,2013-04-24 03:19:00,
2013-04-24 04:25:00,48.5,48.5,29.90,North,359,4.6,4.6,100,0.13,RA,,0.35,0.0,WeatherDisplay:10.37,2013-04-24 03:25:00,
2013-04-24 04:30:00,48.6,48.6,29.90,NW,325,0.0,7.0,100,0.00,RA,,0.36,0.0,WeatherDisplay:10.37,2013-04-24 03:30:00,
2013-04-24 04:35:00,48.9,48.9,29.89,SSW,203,3.5,3.5,100,0.12,RA,,0.37,0.0,WeatherDisplay:10.37,2013-04-24 03:35:00,
2013-04-24 04:40:00,49.1,49.1,29.89,SW,236,3.5,3.5,100,0.12,RA,,0.38,0.0,WeatherDisplay:10.37,2013-04-24 03:40:00,
2013-04-24 04:46:00,49.1,49.1,29.88,North,354,5.8,5.8,100,0.13,RA,,0.39,0.0,WeatherDisplay:10.37,2013-04-24 03:46:00,
2013-04-24 04:51:00,49.2,49.2,29.89,SW,233,5.8,5.8,100,0.12,RA,,0.39,0.0,WeatherDisplay:10.37,2013-04-24 03:51:00,
2013-04-24 04:57:00,49.1,49.1,29.89,North,0,5.0,5.0,100,0.10,CLR,,0.39,0.0,WeatherDisplay:10.37,2013-04-24 03:57:00,
2013-04-24 05:01:00,49.1,49.1,29.89,NW,306,3.5,3.5,100,0.10,RA,,0.40,0.0,WeatherDisplay:10.37,2013-04-24 04:01:00,
2013-04-24 05:02:00,49.1,49.1,29.89,North,0,3.5,3.5,100,0.10,RA,,0.40,0.0,WeatherDisplay:10.37,2013-04-24 04:02:00,
2013-04-24 05:06:00,49.1,49.1,29.89,West,281,3.5,3.5,100,0.10,RA,,0.42,0.0,WeatherDisplay:10.37,2013-04-24 04:06:00,
2013-04-24 05:11:00,49.1,49.1,29.89,NW,305,2.3,2.3,100,0.10,RA,,0.42,0.0,WeatherDisplay:10.37,2013-04-24 04:11:00,
2013-04-24 05:17:00,48.9,48.9,29.88,NNW,333,2.3,2.3,100,0.10,RA,,0.43,0.0,WeatherDisplay:10.37,2013-04-24 04:17:00,
2013-04-24 05:22:00,48.9,48.9,29.88,WNW,287,3.5,3.5,100,0.09,RA,,0.43,0.0,WeatherDisplay:10.37,2013-04-24 04:22:00,
2013-04-24 05:27:00,49.1,49.1,29.88,NNW,339,5.0,5.0,100,0.07,OVC,,0.43,0.0,WeatherDisplay:10.37,2013-04-24 04:27:00,
2013-04-24 05:32:00,49.1,49.1,29.88,NNW,342,8.1,8.1,100,0.07,OVC,,0.43,0.0,WeatherDisplay:10.37,2013-04-24 04:32:00,
2013-04-24 05:37:00,49.2,49.2,29.88,North,350,2.3,2.3,100,0.05,OVC,,0.43,0.0,WeatherDisplay:10.37,2013-04-24 04:37:00,
2013-04-24 05:42:00,49.4,49.4,29.88,East,90,3.5,3.5,100,0.05,OVC,,0.43,0.0,WeatherDisplay:10.37,2013-04-24 04:42:00,
2013-04-24 05:47:00,49.6,49.6,29.88,WSW,239,10.4,10.4,100,0.04,OVC,,0.43,0.0,WeatherDisplay:10.37,2013-04-24 04:47:00,
2013-04-24 05:52:00,49.8,49.8,29.88,NW,320,5.0,5.0,100,0.05,RA,,0.44,0.0,WeatherDisplay:10.37,2013-04-24 04:52:00,
2013-04-24 05:57:00,49.8,49.8,29.88,NNW,330,4.6,4.6,100,0.05,RA,,0.44,0.0,WeatherDisplay:10.37,2013-04-24 04:57:00,
2013-04-24 06:02:00,49.8,49.8,29.88,South,179,5.8,5.8,100,0.04,OVC,,0.44,0.0,WeatherDisplay:10.37,2013-04-24 05:02:00,
2013-04-24 06:08:00,49.8,49.8,29.88,NNW,329,10.4,10.4,100,0.03,RA,,0.45,0.0,WeatherDisplay:10.37,2013-04-24 05:08:00,
2013-04-24 06:13:00,49.8,49.8,29.88,SW,234,11.0,11.0,100,0.02,RA,,0.45,0.0,WeatherDisplay:10.37,2013-04-24 05:13:00,
2013-04-24 06:18:00,49.9,49.9,29.88,WNW,296,6.9,6.9,100,0.02,OVC,,0.45,0.0,WeatherDisplay:10.37,2013-04-24 05:18:00,
2013-04-24 06:23:00,49.9,49.9,29.88,SW,236,5.8,5.8,100,0.03,RA,,0.46,5.0,WeatherDisplay:10.37,2013-04-24 05:23:00,
2013-04-24 06:28:00,50.1,50.1,29.87,NNW,340,8.1,8.1,100,0.03,RA,,0.46,9.0,WeatherDisplay:10.37,2013-04-24 05:28:00,
2013-04-24 06:33:00,50.1,50.1,29.88,NNW,335,11.5,11.5,100,0.03,FEW,,0.46,5.0,WeatherDisplay:10.37,2013-04-24 05:33:00,
2013-04-24 06:38:00,50.1,50.1,29.88,East,90,6.9,6.9,100,0.03,OVC,,0.46,5.0,WeatherDisplay:10.37,2013-04-24 05:38:00,
2013-04-24 06:44:00,50.1,50.1,29.88,NW,326,8.1,8.1,100,0.03,OVC,,0.46,7.0,WeatherDisplay:10.37,2013-04-24 05:44:00,
2013-04-24 06:49:00,50.1,50.1,29.88,WSW,256,4.6,4.6,100,0.03,BKN,,0.46,12.0,WeatherDisplay:10.37,2013-04-24 05:49:00,
2013-04-24 06:54:00,50.2,50.2,29.88,SW,233,6.9,6.9,100,0.02,OVC,,0.46,12.0,WeatherDisplay:10.37,2013-04-24 05:54:00,
2013-04-24 06:59:00,50.4,50.4,29.88,NNW,335,11.5,11.5,100,0.02,OVC,,0.46,12.0,WeatherDisplay:10.37,2013-04-24 05:59:00,
2013-04-24 07:04:00,50.4,50.4,29.88,North,0,5.8,5.8,100,0.01,OVC,,0.46,12.0,WeatherDisplay:10.37,2013-04-24 06:04:00,
2013-04-24 07:09:00,50.5,50.5,29.88,North,0,8.1,8.1,100,0.01,OVC,,0.46,11.0,WeatherDisplay:10.37,2013-04-24 06:09:00,
2013-04-24 07:14:00,50.5,50.5,29.88,NNW,336,6.9,6.9,100,0.01,OVC,,0.46,25.0,WeatherDisplay:10.37,2013-04-24 06:14:00,
2013-04-24 07:20:00,50.8,50.8,29.88,NW,320,11.5,11.5,100,0.01,BKN,,0.46,32.0,WeatherDisplay:10.37,2013-04-24 06:20:00,
2013-04-24 07:25:00,51.0,51.0,29.88,North,356,8.1,8.1,100,0.00,OVC,,0.46,33.0,WeatherDisplay:10.37,2013-04-24 06:25:00,
2013-04-24 07:30:00,51.0,51.0,29.89,SW,232,8.1,8.1,100,0.00,OVC,,0.46,25.0,WeatherDisplay:10.37,2013-04-24 06:30:00,
2013-04-24 07:35:00,51.1,51.1,29.89,West,267,8.1,8.1,100,0.00,OVC,,0.46,18.0,WeatherDisplay:10.37,2013-04-24 06:35:00,
2013-04-24 07:40:00,51.1,51.1,29.89,SW,232,6.0,6.0,100,0.00,OVC,,0.46,14.0,WeatherDisplay:10.37,2013-04-24 06:40:00,
2013-04-24 07:45:00,51.1,51.1,29.89,NW,306,4.6,4.6,100,0.00,OVC,,0.46,12.0,WeatherDisplay:10.37,2013-04-24 06:45:00,
2013-04-24 07:50:00,51.3,51.3,29.89,NNW,342,6.9,6.9,100,0.00,OVC,,0.46,16.0,WeatherDisplay:10.37,2013-04-24 06:50:00,
2013-04-24 07:55:00,51.4,51.4,29.89,NW,319,10.4,10.4,100,0.00,OVC,,0.46,21.0,WeatherDisplay:10.37,2013-04-24 06:55:00,
2013-04-24 08:00:00,51.4,51.4,29.89,North,356,6.0,6.0,100,0.00,OVC,,0.46,28.0,WeatherDisplay:10.37,2013-04-24 07:00:00,
2013-04-24 08:06:00,51.6,51.6,29.89,North,354,5.8,5.8,100,0.00,OVC,,0.46,25.0,WeatherDisplay:10.37,2013-04-24 07:06:00,
2013-04-24 08:11:00,51.6,51.6,29.89,NNW,328,5.0,5.0,100,0.00,OVC,,0.46,30.0,WeatherDisplay:10.37,2013-04-24 07:11:00,
2013-04-24 08:16:00,51.7,51.7,29.90,NNW,328,5.8,5.8,100,0.00,OVC,,0.46,56.0,WeatherDisplay:10.37,2013-04-24 07:16:00,
2013-04-24 08:21:00,51.9,51.9,29.90,SW,232,7.0,7.0,100,0.00,OVC,,0.46,42.0,WeatherDisplay:10.37,2013-04-24 07:21:00,
2013-04-24 08:27:00,51.9,51.9,29.90,NNW,346,6.9,6.9,100,0.00,OVC,,0.46,46.0,WeatherDisplay:10.37,2013-04-24 07:27:00,
2013-04-24 08:32:00,51.9,51.9,29.90,North,0,10.4,10.4,100,0.00,OVC,,0.46,55.0,WeatherDisplay:10.37,2013-04-24 07:32:00,
2013-04-24 08:37:00,51.9,51.9,29.91,NNW,336,6.9,6.9,100,0.00,OVC,,0.46,51.0,WeatherDisplay:10.37,2013-04-24 07:37:00,
2013-04-24 08:42:00,51.9,51.9,29.91,NW,316,11.5,11.5,100,0.00,OVC,,0.46,67.0,WeatherDisplay:10.37,2013-04-24 07:42:00,
2013-04-24 08:47:00,51.7,51.7,29.92,NW,320,12.0,12.0,100,0.00,OVC,,0.46,62.0,WeatherDisplay:10.37,2013-04-24 07:47:00,
2013-04-24 08:52:00,51.7,51.7,29.92,NNW,329,6.9,6.9,100,0.00,OVC,,0.46,37.0,WeatherDisplay:10.37,2013-04-24 07:52:00,
2013-04-24 08:57:00,51.6,51.6,29.93,NW,323,11.5,11.5,100,0.00,OVC,,0.46,49.0,WeatherDisplay:10.37,2013-04-24 07:57:00,
2013-04-24 09:02:00,51.1,51.1,29.93,NNW,346,9.2,9.2,100,0.00,OVC,,0.46,42.0,WeatherDisplay:10.37,2013-04-24 08:02:00,
2013-04-24 09:07:00,50.8,50.8,29.93,NNW,336,12.7,12.7,100,0.00,OVC,,0.46,39.0,WeatherDisplay:10.37,2013-04-24 08:07:00,
2013-04-24 09:13:00,50.4,50.4,29.94,NNW,336,10.0,10.0,100,0.00,OVC,,0.46,86.0,WeatherDisplay:10.37,2013-04-24 08:13:00,
2013-04-24 09:18:00,50.2,50.2,29.95,NNW,336,11.5,11.5,100,0.00,OVC,,0.46,99.0,WeatherDisplay:10.37,2013-04-24 08:18:00,
2013-04-24 09:23:00,49.9,49.9,29.95,NNW,340,19.6,19.6,100,0.00,BKN,,0.46,139.0,WeatherDisplay:10.37,2013-04-24 08:23:00,
2013-04-24 09:28:00,49.6,49.6,29.95,NW,326,19.6,19.6,100,0.00,BKN,,0.46,206.0,WeatherDisplay:10.37,2013-04-24 08:28:00,
2013-04-24 09:33:00,49.6,49.6,29.95,NW,325,12.7,12.7,100,0.00,SCT,,0.46,227.0,WeatherDisplay:10.37,2013-04-24 08:33:00,
2013-04-24 09:38:00,49.6,49.6,29.96,NW,315,16.1,16.1,100,0.00,BKN,,0.46,178.0,WeatherDisplay:10.37,2013-04-24 08:38:00,
2013-04-24 09:43:00,49.5,49.5,29.96,NNW,343,12.7,12.7,100,0.00,OVC,,0.46,123.0,WeatherDisplay:10.37,2013-04-24 08:43:00,
2013-04-24 09:49:00,49.4,49.4,29.96,NW,326,16.1,16.1,100,0.00,OVC,,0.46,134.0,WeatherDisplay:10.37,2013-04-24 08:49:00,
2013-04-24 09:54:00,49.2,49.2,29.97,NW,320,6.9,6.9,100,0.00,OVC,,0.46,150.0,WeatherDisplay:10.37,2013-04-24 08:54:00,
2013-04-24 09:59:00,49.4,49.4,29.97,NNW,330,8.1,8.1,100,0.00,OVC,,0.46,135.0,WeatherDisplay:10.37,2013-04-24 08:59:00,
2013-04-24 10:04:00,49.2,49.2,29.98,NNW,346,6.9,6.9,100,0.00,OVC,,0.46,164.0,WeatherDisplay:10.37,2013-04-24 09:04:00,
2013-04-24 10:09:00,49.2,49.2,29.98,NW,323,4.6,4.6,100,0.00,OVC,,0.46,144.0,WeatherDisplay:10.37,2013-04-24 09:09:00,
2013-04-24 10:14:00,49.2,49.2,29.99,NNW,330,6.9,6.9,100,0.00,OVC,,0.46,134.0,WeatherDisplay:10.37,2013-04-24 09:14:00,
2013-04-24 10:19:00,49.1,49.1,29.99,NNW,333,8.1,8.1,100,0.00,OVC,,0.46,125.0,WeatherDisplay:10.37,2013-04-24 09:19:00,
2013-04-24 10:25:00,49.1,49.1,30.00,NW,319,8.0,8.0,100,0.00,OVC,,0.46,169.0,WeatherDisplay:10.37,2013-04-24 09:25:00,
2013-04-24 10:30:00,48.6,48.6,30.01,North,359,17.3,17.3,100,0.00,OVC,,0.46,179.0,WeatherDisplay:10.37,2013-04-24 09:30:00,
2013-04-24 10:35:00,48.3,48.3,30.01,WSW,250,8.1,8.1,100,0.00,OVC,,0.46,134.0,WeatherDisplay:10.37,2013-04-24 09:35:00,
2013-04-24 10:40:00,48.3,48.3,30.01,NW,315,6.9,6.9,100,0.00,OVC,,0.46,188.0,WeatherDisplay:10.37,2013-04-24 09:40:00,
2013-04-24 10:45:00,48.6,48.3,30.02,NW,313,3.5,3.5,99,0.00,OVC,,0.46,160.0,WeatherDisplay:10.37,2013-04-24 09:45:00,
2013-04-24 10:51:00,48.9,48.6,30.02,NNW,328,6.9,6.9,99,0.00,OVC,,0.46,192.0,WeatherDisplay:10.37,2013-04-24 09:51:00,
2013-04-24 10:56:00,49.1,48.6,30.03,WNW,301,3.5,3.5,98,0.00,BKN,,0.46,227.0,WeatherDisplay:10.37,2013-04-24 09:56:00,
2013-04-24 11:01:00,49.1,48.3,30.03,NW,309,5.8,5.8,97,0.00,OVC,,0.46,187.0,WeatherDisplay:10.37,2013-04-24 10:01:00,
2013-04-24 11:06:00,49.1,48.0,30.04,NNW,344,7.0,7.0,96,0.00,OVC,,0.46,188.0,WeatherDisplay:10.37,2013-04-24 10:06:00,
2013-04-24 11:11:00,48.9,47.5,30.04,NW,313,5.8,5.8,95,0.00,OVC,,0.46,174.0,WeatherDisplay:10.37,2013-04-24 10:11:00,
2013-04-24 11:16:00,49.1,47.4,30.05,NW,315,6.0,6.0,94,0.00,OVC,,0.46,172.0,WeatherDisplay:10.37,2013-04-24 10:16:00,
2013-04-24 11:21:00,48.8,46.6,30.05,NNW,342,11.5,11.5,92,0.00,OVC,,0.46,169.0,WeatherDisplay:10.37,2013-04-24 10:21:00,
2013-04-24 11:26:00,48.9,46.7,30.06,NNW,330,8.0,8.0,92,0.00,OVC,,0.46,151.0,WeatherDisplay:10.37,2013-04-24 10:26:00,
2013-04-24 11:32:00,49.1,46.9,30.06,NNW,335,4.6,4.6,92,0.00,OVC,,0.46,139.0,WeatherDisplay:10.37,2013-04-24 10:32:00,
2013-04-24 11:37:00,49.1,46.9,30.06,NNW,330,4.6,4.6,92,0.00,OVC,,0.46,204.0,WeatherDisplay:10.37,2013-04-24 10:37:00,
2013-04-24 11:42:00,49.1,46.9,30.07,NNW,342,11.5,11.5,92,0.00,OVC,,0.46,199.0,WeatherDisplay:10.37,2013-04-24 10:42:00,
2013-04-24 11:47:00,49.1,46.6,30.07,NNW,336,11.5,11.5,91,0.00,OVC,,0.46,243.0,WeatherDisplay:10.37,2013-04-24 10:47:00,
2013-04-24 11:52:00,49.6,46.8,30.07,NW,323,8.1,8.1,90,0.00,SCT,,0.46,415.0,WeatherDisplay:10.37,2013-04-24 10:52:00,
2013-04-24 11:57:00,50.1,47.0,30.07,NNW,328,8.1,8.1,89,0.00,BKN,,0.46,276.0,WeatherDisplay:10.37,2013-04-24 10:57:00,
2013-04-24 12:02:00,50.2,46.8,30.07,NNW,347,4.6,4.6,88,0.00,FEW,,0.46,352.0,WeatherDisplay:10.37,2013-04-24 11:02:00,
2013-04-24 12:08:00,50.7,47.6,30.07,NNW,328,8.1,8.1,89,0.00,SCT,,0.46,473.0,WeatherDisplay:10.37,2013-04-24 11:08:00,
2013-04-24 12:13:00,51.0,47.3,30.07,NW,326,7.0,7.0,87,0.00,BKN,,0.46,324.0,WeatherDisplay:10.37,2013-04-24 11:13:00,
2013-04-24 12:18:00,51.4,47.4,30.08,NNW,340,9.0,9.0,86,0.00,BKN,,0.46,350.0,WeatherDisplay:10.37,2013-04-24 11:18:00,
2013-04-24 12:23:00,51.1,46.4,30.08,North,352,10.4,10.4,84,0.00,BKN,,0.46,375.0,WeatherDisplay:10.37,2013-04-24 11:23:00,
2013-04-24 12:29:00,51.0,46.3,30.08,NW,326,6.9,6.9,84,0.00,SCT,,0.46,412.0,WeatherDisplay:10.37,2013-04-24 11:29:00,
2013-04-24 12:34:00,51.6,46.9,30.09,NW,315,8.1,8.1,84,0.00,SCT,,0.46,450.0,WeatherDisplay:10.37,2013-04-24 11:34:00,
2013-04-24 12:39:00,51.7,46.4,30.09,NNW,337,11.5,11.5,82,0.00,SCT,,0.46,422.0,WeatherDisplay:10.37,2013-04-24 11:39:00,
2013-04-24 12:44:00,51.7,46.4,30.09,NW,323,10.0,10.0,82,0.00,BKN,,0.46,347.0,WeatherDisplay:10.37,2013-04-24 11:44:00,
2013-04-24 12:49:00,51.0,44.4,30.09,NNW,335,16.1,16.1,78,0.00,OVC,,0.46,289.0,WeatherDisplay:10.37,2013-04-24 11:49:00,
2013-04-24 12:54:00,51.0,45.0,30.09,NNW,342,11.5,11.5,80,0.00,OVC,,0.46,297.0,WeatherDisplay:10.37,2013-04-24 11:54:00,
2013-04-24 13:00:00,50.8,44.9,30.09,SE,134,11.5,11.5,80,0.00,BKN,,0.46,310.0,WeatherDisplay:10.37,2013-04-24 12:00:00,
2013-04-24 13:05:00,51.6,45.6,30.09,NNW,340,11.5,11.5,80,0.00,BKN,,0.46,303.0,WeatherDisplay:10.37,2013-04-24 12:05:00,
2013-04-24 13:10:00,52.6,46.9,30.10,NW,316,10.4,10.4,81,0.00,CLR,,0.46,827.0,WeatherDisplay:10.37,2013-04-24 12:10:00,
2013-04-24 13:15:00,52.9,45.5,30.10,NW,319,12.7,12.7,76,0.00,CLR,,0.46,901.0,WeatherDisplay:10.37,2013-04-24 12:15:00,
2013-04-24 13:20:00,53.2,45.5,30.10,North,349,19.6,19.6,75,0.00,CLR,,0.46,933.0,WeatherDisplay:10.37,2013-04-24 12:20:00,
2013-04-24 13:25:00,53.3,45.6,30.10,NNW,346,16.1,16.1,75,0.00,CLR,,0.46,910.0,WeatherDisplay:10.37,2013-04-24 12:25:00,
2013-04-24 13:30:00,53.8,46.1,30.11,NNW,329,8.1,8.1,75,0.00,CLR,,0.46,910.0,WeatherDisplay:10.37,2013-04-24 12:30:00,
2013-04-24 13:36:00,53.3,44.1,30.11,NNW,339,17.3,17.3,71,0.00,FEW,,0.46,721.0,WeatherDisplay:10.37,2013-04-24 12:36:00,
2013-04-24 13:41:00,53.3,43.4,30.11,North,357,16.1,16.1,69,0.00,FEW,,0.46,663.0,WeatherDisplay:10.37,2013-04-24 12:41:00,
2013-04-24 13:46:00,52.9,43.4,30.11,NW,311,18.4,18.4,70,0.00,SCT,,0.46,505.0,WeatherDisplay:10.37,2013-04-24 12:46:00,
2013-04-24 13:52:00,52.6,43.1,30.11,NNW,339,17.3,17.3,70,0.00,SCT,,0.46,526.0,WeatherDisplay:10.37,2013-04-24 12:52:00,
2013-04-24 13:57:00,52.8,42.9,30.11,NW,325,19.6,19.6,69,0.00,FEW,,0.46,772.0,WeatherDisplay:10.37,2013-04-24 12:57:00,
2013-04-24 14:02:00,53.1,43.2,30.11,NNW,346,17.3,17.3,69,0.00,CLR,,0.46,816.0,WeatherDisplay:10.37,2013-04-24 13:02:00,
2013-04-24 14:07:00,53.5,44.0,30.12,NNW,343,17.3,17.3,70,0.00,CLR,,0.46,732.0,WeatherDisplay:10.37,2013-04-24 13:07:00,
2013-04-24 14:12:00,53.5,43.6,30.12,NNW,340,18.4,18.4,69,0.00,FEW,,0.46,707.0,WeatherDisplay:10.37,2013-04-24 13:12:00,
2013-04-24 14:17:00,53.2,41.3,30.12,NNW,336,19.6,19.6,64,0.00,FEW,,0.46,765.0,WeatherDisplay:10.37,2013-04-24 13:17:00,
2013-04-24 14:22:00,53.3,41.8,30.12,North,356,12.7,12.7,65,0.00,FEW,,0.46,723.0,WeatherDisplay:10.37,2013-04-24 13:22:00,
2013-04-24 14:27:00,53.2,41.3,30.13,NNW,333,10.4,10.4,64,0.00,CLR,,0.46,813.0,WeatherDisplay:10.37,2013-04-24 13:27:00,
2013-04-24 14:33:00,53.8,43.1,30.13,South,172,10.4,10.4,67,0.00,CLR,,0.46,846.0,WeatherDisplay:10.37,2013-04-24 13:33:00,
2013-04-24 14:38:00,53.9,43.2,30.13,NNW,337,11.5,11.5,67,0.00,OVC,,0.46,257.0,WeatherDisplay:10.37,2013-04-24 13:38:00,
2013-04-24 14:43:00,52.6,41.2,30.14,NW,326,16.1,16.1,65,0.00,OVC,,0.46,218.0,WeatherDisplay:10.37,2013-04-24 13:43:00,
2013-04-24 14:48:00,51.4,41.6,30.14,NNW,333,16.1,16.1,69,0.00,OVC,,0.46,176.0,WeatherDisplay:10.37,2013-04-24 13:48:00,
2013-04-24 14:53:00,50.8,41.4,30.14,NNW,343,8.1,8.1,70,0.00,OVC,,0.46,211.0,WeatherDisplay:10.37,2013-04-24 13:53:00,
2013-04-24 14:58:00,51.4,41.2,30.14,North,349,12.0,12.0,68,0.00,OVC,,0.46,255.0,WeatherDisplay:10.37,2013-04-24 13:58:00,
2013-04-24 15:03:00,51.4,39.6,30.14,NNW,328,12.7,12.7,64,0.00,OVC,,0.46,206.0,WeatherDisplay:10.37,2013-04-24 14:03:00,
2013-04-24 15:09:00,51.0,39.6,30.14,North,354,13.8,13.8,65,0.00,CLR,,0.46,743.0,WeatherDisplay:10.37,2013-04-24 14:09:00,
2013-04-24 15:14:00,51.9,40.5,30.14,NNW,328,13.8,13.8,65,0.00,OVC,,0.46,171.0,WeatherDisplay:10.37,2013-04-24 14:14:00,
2013-04-24 15:19:00,51.4,41.2,30.14,North,350,8.1,8.1,68,0.00,OVC,,0.46,171.0,WeatherDisplay:10.37,2013-04-24 14:19:00,
2013-04-24 15:24:00,51.4,41.2,30.15,NNW,343,12.7,12.7,68,0.00,OVC,,0.46,264.0,WeatherDisplay:10.37,2013-04-24 14:24:00,
2013-04-24 15:30:00,52.2,40.8,30.15,North,349,16.1,16.1,65,0.00,CLR,,0.46,864.0,WeatherDisplay:10.37,2013-04-24 14:30:00,
2013-04-24 15:35:00,53.3,41.0,30.15,North,350,12.7,12.7,63,0.00,FEW,,0.46,575.0,WeatherDisplay:10.37,2013-04-24 14:35:00,
2013-04-24 15:40:00,54.1,40.9,30.15,NNW,346,17.3,17.3,61,0.00,CLR,,0.46,788.0,WeatherDisplay:10.37,2013-04-24 14:40:00,
2013-04-24 15:45:00,53.8,40.7,30.15,NNW,341,5.0,18.0,61,0.00,SCT,,0.46,493.0,WeatherDisplay:10.37,2013-04-24 14:45:00,
2013-04-24 15:50:00,52.8,41.4,30.15,NNW,328,11.5,11.5,65,0.00,SCT,,0.46,399.0,WeatherDisplay:10.37,2013-04-24 14:50:00,
2013-04-24 15:55:00,52.3,41.3,30.15,NNW,347,12.7,12.7,66,0.00,BKN,,0.46,292.0,WeatherDisplay:10.37,2013-04-24 14:55:00,
2013-04-24 16:00:00,51.7,41.5,30.15,NNW,328,14.0,14.0,68,0.00,BKN,,0.46,287.0,WeatherDisplay:10.37,2013-04-24 15:00:00,
2013-04-24 16:05:00,52.3,41.3,30.15,North,354,12.0,12.0,66,0.00,CLR,,0.46,642.0,WeatherDisplay:10.37,2013-04-24 15:05:00,
2013-04-24 16:11:00,52.8,41.0,30.16,NNW,336,11.5,11.5,64,0.00,CLR,,0.46,273.0,WeatherDisplay:10.37,2013-04-24 15:11:00,
2013-04-24 16:16:00,52.2,40.4,30.16,North,356,13.8,13.8,64,0.00,OVC,,0.46,192.0,WeatherDisplay:10.37,2013-04-24 15:16:00,
2013-04-24 16:21:00,51.1,40.5,30.16,NNW,344,11.5,11.5,67,0.00,OVC,,0.46,132.0,WeatherDisplay:10.37,2013-04-24 15:21:00,
2013-04-24 16:26:00,50.5,39.6,30.16,North,353,13.8,13.8,66,0.00,OVC,,0.46,141.0,WeatherDisplay:10.37,2013-04-24 15:26:00,
2013-04-24 16:31:00,50.4,39.9,30.16,North,350,11.5,11.5,67,0.00,OVC,,0.46,209.0,WeatherDisplay:10.37,2013-04-24 15:31:00,
2013-04-24 16:36:00,50.5,38.8,30.16,NNW,330,11.0,11.0,64,0.00,OVC,,0.46,139.0,WeatherDisplay:10.37,2013-04-24 15:36:00,
2013-04-24 16:42:00,50.5,39.2,30.16,North,350,5.8,5.8,65,0.00,OVC,,0.46,215.0,WeatherDisplay:10.37,2013-04-24 15:42:00,
2013-04-24 16:47:00,51.0,39.2,30.16,North,359,10.4,10.4,64,0.00,CLR,,0.46,554.0,WeatherDisplay:10.37,2013-04-24 15:47:00,
2013-04-24 16:52:00,52.2,40.8,30.16,NNW,346,5.0,5.0,65,0.00,SCT,,0.46,380.0,WeatherDisplay:10.37,2013-04-24 15:52:00,
2013-04-24 16:57:00,51.9,40.5,30.17,NNW,339,5.8,5.8,65,0.00,FEW,,0.46,440.0,WeatherDisplay:10.37,2013-04-24 15:57:00,
2013-04-24 17:02:00,52.0,40.2,30.17,NNW,344,10.4,10.4,64,0.00,FEW,,0.46,422.0,WeatherDisplay:10.37,2013-04-24 16:02:00,
2013-04-24 17:07:00,52.0,38.1,30.16,NW,305,5.8,5.8,59,0.00,SCT,,0.46,267.0,WeatherDisplay:10.37,2013-04-24 16:07:00,
2013-04-24 17:13:00,51.9,39.3,30.16,NNW,347,11.5,11.5,62,0.00,OVC,,0.46,174.0,WeatherDisplay:10.37,2013-04-24 16:13:00,
2013-04-24 17:18:00,51.6,39.8,30.17,North,352,8.1,8.1,64,0.00,CLR,,0.46,503.0,WeatherDisplay:10.37,2013-04-24 16:18:00,
2013-04-24 17:23:00,52.3,39.7,30.17,NNW,336,6.9,6.9,62,0.00,CLR,,0.46,554.0,WeatherDisplay:10.37,2013-04-24 16:23:00,
2013-04-24 17:28:00,52.8,40.1,30.17,North,356,11.5,11.5,62,0.00,CLR,,0.46,447.0,WeatherDisplay:10.37,2013-04-24 16:28:00,
2013-04-24 17:33:00,52.8,39.7,30.17,North,352,4.6,4.6,61,0.00,FEW,,0.46,399.0,WeatherDisplay:10.37,2013-04-24 16:33:00,
2013-04-24 17:38:00,52.3,38.8,30.17,NNW,346,8.1,8.1,60,0.00,FEW,,0.46,318.0,WeatherDisplay:10.37,2013-04-24 16:38:00,
2013-04-24 17:43:00,51.7,38.3,30.17,North,349,6.9,6.9,60,0.00,SCT,,0.46,297.0,WeatherDisplay:10.37,2013-04-24 16:43:00,
2013-04-24 17:49:00,51.4,38.8,30.17,North,350,7.0,7.0,62,0.00,SCT,,0.46,278.0,WeatherDisplay:10.37,2013-04-24 16:49:00,
2013-04-24 17:54:00,51.3,38.3,30.17,NW,319,5.8,5.8,61,0.00,SCT,,0.46,227.0,WeatherDisplay:10.37,2013-04-24 16:54:00,
2013-04-24 17:59:00,50.8,38.2,30.17,North,359,8.1,8.1,62,0.00,SCT,,0.46,264.0,WeatherDisplay:10.37,2013-04-24 16:59:00,
2013-04-24 18:04:00,50.7,38.1,30.18,NNW,344,3.5,3.5,62,0.00,SCT,,0.46,267.0,WeatherDisplay:10.37,2013-04-24 17:04:00,
2013-04-24 18:09:00,50.5,37.5,30.18,North,354,8.1,8.1,61,0.00,SCT,,0.46,260.0,WeatherDisplay:10.37,2013-04-24 17:09:00,
2013-04-24 18:14:00,50.5,38.4,30.18,NNW,335,6.9,6.9,63,0.00,FEW,,0.46,271.0,WeatherDisplay:10.37,2013-04-24 17:14:00,
2013-04-24 18:19:00,50.8,38.7,30.18,NNW,329,12.7,12.7,63,0.00,FEW,,0.46,283.0,WeatherDisplay:10.37,2013-04-24 17:19:00,
2013-04-24 18:24:00,50.7,38.1,30.18,North,356,8.1,8.1,62,0.00,FEW,,0.46,278.0,WeatherDisplay:10.37,2013-04-24 17:24:00,
2013-04-24 18:30:00,50.4,38.7,30.18,NNW,342,4.0,4.0,64,0.00,CLR,,0.46,287.0,WeatherDisplay:10.37,2013-04-24 17:30:00,
2013-04-24 18:35:00,50.4,39.1,30.18,North,349,8.1,8.1,65,0.00,CLR,,0.46,278.0,WeatherDisplay:10.37,2013-04-24 17:35:00,
2013-04-24 18:40:00,50.1,38.8,30.18,North,353,11.5,11.5,65,0.00,FEW,,0.46,225.0,WeatherDisplay:10.37,2013-04-24 17:40:00,
2013-04-24 18:45:00,49.9,38.2,30.18,NNW,346,12.7,12.7,64,0.00,SCT,,0.46,195.0,WeatherDisplay:10.37,2013-04-24 17:45:00,
2013-04-24 18:50:00,49.6,37.5,30.18,NNW,337,6.9,6.9,63,0.00,SCT,,0.46,192.0,WeatherDisplay:10.37,2013-04-24 17:50:00,
2013-04-24 18:55:00,49.5,38.2,30.18,NNW,333,3.5,3.5,65,0.00,SCT,,0.46,155.0,WeatherDisplay:10.37,2013-04-24 17:55:00,
2013-04-24 19:01:00,49.4,37.7,30.19,NNW,328,4.6,4.6,64,0.00,SCT,,0.46,162.0,WeatherDisplay:10.37,2013-04-24 18:01:00,
2013-04-24 19:06:00,49.2,37.9,30.19,NNW,336,4.6,4.6,65,0.00,FEW,,0.46,176.0,WeatherDisplay:10.37,2013-04-24 18:06:00,
2013-04-24 19:11:00,49.1,38.6,30.19,NW,309,8.1,8.1,67,0.00,FEW,,0.46,160.0,WeatherDisplay:10.37,2013-04-24 18:11:00,
2013-04-24 19:16:00,48.9,38.8,30.19,NNW,336,5.8,5.8,68,0.00,FEW,,0.46,157.0,WeatherDisplay:10.37,2013-04-24 18:16:00,
2013-04-24 19:21:00,48.8,38.7,30.19,NW,326,5.8,5.8,68,0.00,BKN,,0.46,72.0,WeatherDisplay:10.37,2013-04-24 18:21:00,
2013-04-24 19:26:00,48.5,38.4,30.19,NNW,346,3.5,3.5,68,0.00,BKN,,0.46,76.0,WeatherDisplay:10.37,2013-04-24 18:26:00,
2013-04-24 19:31:00,48.3,38.6,30.19,NW,322,3.5,3.5,69,0.00,BKN,,0.46,77.0,WeatherDisplay:10.37,2013-04-24 18:31:00,
2013-04-24 19:36:00,48.0,38.3,30.20,NW,311,4.6,4.6,69,0.00,BKN,,0.46,65.0,WeatherDisplay:10.37,2013-04-24 18:36:00,
2013-04-24 19:41:00,47.9,38.6,30.20,NNW,346,6.9,6.9,70,0.00,BKN,,0.46,58.0,WeatherDisplay:10.37,2013-04-24 18:41:00,
2013-04-24 19:46:00,47.7,38.0,30.20,North,353,7.0,7.0,69,0.00,BKN,,0.46,55.0,WeatherDisplay:10.37,2013-04-24 18:46:00,
2013-04-24 19:52:00,47.4,37.7,30.20,NNW,339,8.1,8.1,69,0.00,BKN,,0.46,49.0,WeatherDisplay:10.37,2013-04-24 18:52:00,
2013-04-24 19:57:00,47.3,37.6,30.20,NW,318,3.5,3.5,69,0.00,OVC,,0.46,35.0,WeatherDisplay:10.37,2013-04-24 18:57:00,
2013-04-24 20:02:00,47.1,37.4,30.20,NNW,336,1.0,0.0,69,0.00,OVC,,0.46,26.0,WeatherDisplay:10.37,2013-04-24 19:02:00,
2013-04-24 20:07:00,46.8,37.5,30.20,NNW,339,5.8,5.8,70,0.00,OVC,,0.46,25.0,WeatherDisplay:10.37,2013-04-24 19:07:00,
2013-04-24 20:12:00,46.5,37.2,30.20,NW,322,4.6,4.6,70,0.00,OVC,,0.46,21.0,WeatherDisplay:10.37,2013-04-24 19:12:00,
2013-04-24 20:17:00,46.4,37.5,30.20,NW,316,4.6,4.6,71,0.00,OVC,,0.46,18.0,WeatherDisplay:10.37,2013-04-24 19:17:00,
2013-04-24 20:22:00,46.2,37.3,30.21,NW,305,3.5,3.5,71,0.00,OVC,,0.46,16.0,WeatherDisplay:10.37,2013-04-24 19:22:00,
2013-04-24 20:27:00,46.0,37.5,30.21,NW,312,0.0,0.9,72,0.00,OVC,,0.46,14.0,WeatherDisplay:10.37,2013-04-24 19:27:00,
2013-04-24 20:32:00,45.8,37.3,30.20,NNW,330,3.5,3.5,72,0.00,OVC,,0.46,11.0,WeatherDisplay:10.37,2013-04-24 19:32:00,
2013-04-24 20:38:00,45.7,37.2,30.20,NW,318,4.6,4.6,72,0.00,OVC,,0.46,7.0,WeatherDisplay:10.37,2013-04-24 19:38:00,
2013-04-24 20:43:00,45.7,37.5,30.20,NW,323,2.3,2.3,73,0.00,OVC,,0.46,5.0,WeatherDisplay:10.37,2013-04-24 19:43:00,
2013-04-24 20:48:00,45.5,37.7,30.21,NW,312,2.3,0.0,74,0.00,OVC,,0.46,0.0,WeatherDisplay:10.37,2013-04-24 19:48:00,
2013-04-24 20:53:00,45.4,37.6,30.21,NW,315,1.2,1.2,74,0.00,OVC,,0.46,0.0,WeatherDisplay:10.37,2013-04-24 19:53:00,
2013-04-24 20:58:00,45.4,37.6,30.21,NW,319,2.0,2.0,74,0.00,OVC,,0.46,0.0,WeatherDisplay:10.37,2013-04-24 19:58:00,
2013-04-24 21:04:00,45.2,37.7,30.21,North,350,3.5,3.5,75,0.00,CLR,,0.46,0.0,WeatherDisplay:10.37,2013-04-24 20:04:00,
2013-04-24 21:09:00,45.1,37.6,30.21,NW,309,2.0,2.0,75,0.00,CLR,,0.46,0.0,WeatherDisplay:10.37,2013-04-24 20:09:00,
2013-04-24 21:14:00,45.1,37.6,30.21,NW,306,2.0,2.0,75,0.00,CLR,,0.46,0.0,WeatherDisplay:10.37,2013-04-24 20:14:00,
2013-04-24 21:19:00,44.9,37.8,30.21,NW,325,0.0,0.0,76,0.00,CLR,,0.46,0.0,WeatherDisplay:10.37,2013-04-24 20:19:00,
2013-04-24 21:24:00,44.9,37.8,30.21,NNW,329,1.2,1.2,76,0.00,CLR,,0.46,0.0,WeatherDisplay:10.37,2013-04-24 20:24:00,
2013-04-24 21:29:00,44.9,37.8,30.21,NW,320,3.0,3.0,76,0.00,CLR,,0.46,0.0,WeatherDisplay:10.37,2013-04-24 20:29:00,
2013-04-24 21:34:00,44.8,37.7,30.21,NW,325,1.2,1.2,76,0.00,CLR,,0.46,0.0,WeatherDisplay:10.37,2013-04-24 20:34:00,
2013-04-24 21:39:00,44.8,37.4,30.21,NW,323,1.2,0.0,75,0.00,CLR,,0.46,0.0,WeatherDisplay:10.37,2013-04-24 20:39:00,
2013-04-24 21:45:00,44.8,37.4,30.21,NW,320,0.0,5.0,75,0.00,CLR,,0.46,0.0,WeatherDisplay:10.37,2013-04-24 20:45:00,
2013-04-24 21:50:00,44.8,37.4,30.21,WSW,256,3.5,3.5,75,0.00,CLR,,0.46,0.0,WeatherDisplay:10.37,2013-04-24 20:50:00,
2013-04-24 21:55:00,44.8,37.4,30.21,NW,312,3.5,3.5,75,0.00,CLR,,0.46,0.0,WeatherDisplay:10.37,2013-04-24 20:55:00,
2013-04-24 22:00:00,44.6,37.2,30.21,WNW,282,0.0,5.0,75,0.00,CLR,,0.46,0.0,WeatherDisplay:10.37,2013-04-24 21:00:00,
2013-04-24 22:05:00,44.6,37.2,30.21,WSW,240,1.2,1.2,75,0.00,CLR,,0.46,0.0,WeatherDisplay:10.37,2013-04-24 21:05:00,
2013-04-24 22:10:00,44.6,37.2,30.21,WSW,240,1.2,1.2,75,0.00,CLR,,0.46,0.0,WeatherDisplay:10.37,2013-04-24 21:10:00,
2013-04-24 22:15:00,44.5,37.4,30.22,SW,232,0.0,0.0,76,0.00,CLR,,0.46,0.0,WeatherDisplay:10.37,2013-04-24 21:15:00,
2013-04-24 22:20:00,44.5,37.7,30.22,NW,305,1.0,1.0,77,0.00,CLR,,0.46,0.0,WeatherDisplay:10.37,2013-04-24 21:20:00,
2013-04-24 22:25:00,44.3,37.5,30.22,NW,311,0.0,0.0,77,0.00,CLR,,0.46,0.0,WeatherDisplay:10.37,2013-04-24 21:25:00,
2013-04-24 22:31:00,44.2,37.4,30.21,NW,308,0.0,0.0,77,0.00,CLR,,0.46,0.0,WeatherDisplay:10.37,2013-04-24 21:31:00,
2013-04-24 22:36:00,44.1,37.7,30.22,NW,305,2.3,2.3,78,0.00,CLR,,0.46,0.0,WeatherDisplay:10.37,2013-04-24 21:36:00,
2013-04-24 22:41:00,44.1,37.7,30.22,NW,312,1.2,0.0,78,0.00,CLR,,0.46,0.0,WeatherDisplay:10.37,2013-04-24 21:41:00,
2013-04-24 22:46:00,43.9,37.5,30.22,NW,313,0.0,0.0,78,0.00,CLR,,0.46,0.0,WeatherDisplay:10.37,2013-04-24 21:46:00,
2013-04-24 22:51:00,43.9,37.5,30.22,NW,306,0.0,0.0,78,0.00,CLR,,0.46,0.0,WeatherDisplay:10.37,2013-04-24 21:51:00,
2013-04-24 22:56:00,43.8,37.7,30.21,NW,305,0.0,0.0,79,0.00,CLR,,0.46,0.0,WeatherDisplay:10.37,2013-04-24 21:56:00,
2013-04-24 23:01:00,43.8,37.7,30.21,NW,304,1.2,1.2,79,0.00,CLR,,0.46,0.0,WeatherDisplay:10.37,2013-04-24 22:01:00,
2013-04-24 23:06:00,43.8,37.7,30.20,NW,311,3.5,0.0,79,0.00,CLR,,0.46,0.0,WeatherDisplay:10.37,2013-04-24 22:06:00,
2013-04-24 23:12:00,43.9,37.8,30.20,WNW,294,0.0,0.0,79,0.00,CLR,,0.46,0.0,WeatherDisplay:10.37,2013-04-24 22:12:00,
2013-04-24 23:17:00,43.8,38.0,30.21,WNW,302,0.0,0.4,80,0.00,CLR,,0.46,0.0,WeatherDisplay:10.37,2013-04-24 22:17:00,
2013-04-24 23:22:00,43.9,38.1,30.21,WNW,288,0.0,0.0,80,0.00,CLR,,0.46,0.0,WeatherDisplay:10.37,2013-04-24 22:22:00,
2013-04-24 23:27:00,43.8,38.0,30.20,WNW,292,0.0,0.0,80,0.00,CLR,,0.46,0.0,WeatherDisplay:10.37,2013-04-24 22:27:00,
2013-04-24 23:32:00,43.8,38.0,30.20,WNW,291,0.0,0.0,80,0.00,CLR,,0.46,0.0,WeatherDisplay:10.37,2013-04-24 22:32:00,
2013-04-24 23:37:00,43.8,38.0,30.20,WNW,288,0.0,0.0,80,0.00,CLR,,0.46,0.0,WeatherDisplay:10.37,2013-04-24 22:37:00,
2013-04-24 23:42:00,43.8,38.0,30.20,WNW,301,1.2,0.0,80,0.00,CLR,,0.46,0.0,WeatherDisplay:10.37,2013-04-24 22:42:00,
2013-04-24 23:47:00,43.8,38.0,30.20,NW,304,2.3,0.0,80,0.00,CLR,,0.46,0.0,WeatherDisplay:10.37,2013-04-24 22:47:00,
2013-04-24 23:52:00,43.8,38.0,30.20,NW,304,0.0,0.3,80,0.00,CLR,,0.46,0.0,WeatherDisplay:10.37,2013-04-24 22:52:00,
2013-04-24 23:58:00,43.8,38.0,30.20,NW,305,0.0,0.0,80,0.00,CLR,,0.46,0.0,WeatherDisplay:10.37,2013-04-24 22:58:00,